createdAt,value
2022-09-13T00:00:55.086Z,2.25
2022-09-13T00:06:01.757Z,2.60
2022-09-13T00:11:06.070Z,2.40
2022-09-13T00:16:12.951Z,2.40
2022-09-13T00:21:21.660Z,2.63
2022-09-13T00:26:27.044Z,2.70
2022-09-13T00:31:30.964Z,2.57
2022-09-13T00:36:36.207Z,2.53
2022-09-13T00:41:40.277Z,2.70
2022-09-13T00:46:46.093Z,2.42
2022-09-13T00:51:54.346Z,2.17
2022-09-13T00:57:00.385Z,2.30
2022-09-13T01:02:05.102Z,2.58
2022-09-13T01:07:12.239Z,2.38
2022-09-13T01:12:20.819Z,2.40
2022-09-13T01:17:24.693Z,2.33
2022-09-13T01:23:02.367Z,2.90
2022-09-13T01:28:19.891Z,2.45
2022-09-13T01:33:45.027Z,2.35
2022-09-13T01:38:57.907Z,2.28
2022-09-13T01:44:08.746Z,2.42
2022-09-13T01:49:18.515Z,2.60
2022-09-13T01:54:32.383Z,2.83
2022-09-13T01:59:41.750Z,3.00
2022-09-13T02:04:51.940Z,3.10
2022-09-13T02:09:59.090Z,3.03
2022-09-13T02:15:08.367Z,2.58
2022-09-13T02:20:17.433Z,3.22
2022-09-13T02:25:22.758Z,4.13
2022-09-13T02:30:27.011Z,3.23
2022-09-13T02:35:35.862Z,2.95
2022-09-13T02:40:42.686Z,2.83
2022-09-13T02:45:50.039Z,3.53
2022-09-13T02:51:00.722Z,3.38
2022-09-13T02:56:10.765Z,3.33
2022-09-13T03:01:15.368Z,3.70
2022-09-13T03:06:25.312Z,3.80
2022-09-13T03:11:37.327Z,3.75
2022-09-13T03:16:56.113Z,3.95
2022-09-13T03:22:25.291Z,3.85
2022-09-13T03:27:34.278Z,4.13
2022-09-13T03:32:43.430Z,3.58
2022-09-13T03:37:55.279Z,4.72
2022-09-13T03:43:03.147Z,4.47
2022-09-13T03:48:08.415Z,4.60
2022-09-13T03:53:16.727Z,6.30
2022-09-13T03:58:21.878Z,4.05
2022-09-13T04:03:25.688Z,4.88
2022-09-13T04:08:30.966Z,5.38
2022-09-13T04:13:34.759Z,4.83
2022-09-13T04:18:38.679Z,4.63
2022-09-13T04:23:43.930Z,5.32
2022-09-13T04:28:47.774Z,6.03
2022-09-13T04:33:51.615Z,6.18
2022-09-13T04:38:57.117Z,5.68
2022-09-13T04:44:00.979Z,5.20
2022-09-13T04:49:04.969Z,6.43
2022-09-13T04:54:14.939Z,6.68
2022-09-13T04:59:19.641Z,6.55
2022-09-13T05:04:23.450Z,6.97
2022-09-13T05:09:28.672Z,8.55
2022-09-13T05:14:32.472Z,10.25
2022-09-13T05:19:36.278Z,9.63
2022-09-13T05:24:42.106Z,7.20
2022-09-13T05:29:45.900Z,5.68
2022-09-13T05:34:49.702Z,4.70
2022-09-13T05:40:10.563Z,6.55
2022-09-13T05:45:15.649Z,5.65
2022-09-13T05:50:45.063Z,5.22
2022-09-13T05:55:46.004Z,5.53
2022-09-13T06:00:54.614Z,7.93
2022-09-13T06:05:59.104Z,9.85
2022-09-13T06:11:05.703Z,8.63
2022-09-13T06:16:11.853Z,5.10
2022-09-13T06:21:18.311Z,5.25
2022-09-13T06:26:24.692Z,6.30
2022-09-13T06:31:29.487Z,6.13
2022-09-13T06:36:33.304Z,6.18
2022-09-13T06:41:38.788Z,6.65
2022-09-13T06:46:42.608Z,6.30
2022-09-13T06:51:46.435Z,6.13
2022-09-13T06:56:51.631Z,5.47
2022-09-13T07:01:55.470Z,5.70
2022-09-13T07:07:00.510Z,4.50
2022-09-13T07:12:07.279Z,4.93
2022-09-13T07:17:11.057Z,4.63
2022-09-13T07:22:14.867Z,5.20
2022-09-13T07:27:20.063Z,3.88
2022-09-13T07:32:24.088Z,9.40
2022-09-13T07:37:28.586Z,4.30
2022-09-13T07:42:33.789Z,4.43
2022-09-13T07:47:37.583Z,4.30
2022-09-13T07:52:41.368Z,4.00
2022-09-13T07:57:46.711Z,10.35
2022-09-13T08:02:50.588Z,3.53
2022-09-13T08:07:54.412Z,3.75
2022-09-13T08:12:59.600Z,4.05
2022-09-13T08:18:03.372Z,3.70
2022-09-13T08:23:08.413Z,3.20
2022-09-13T08:28:16.938Z,3.90
2022-09-13T08:33:20.734Z,6.88
2022-09-13T08:38:24.520Z,3.50
2022-09-13T08:43:42.394Z,3.40
2022-09-13T08:48:47.682Z,3.58
2022-09-13T08:53:52.198Z,2.90
2022-09-13T08:59:05.284Z,3.30
2022-09-13T09:04:14.149Z,3.10
2022-09-13T09:09:20.624Z,3.42
2022-09-13T09:14:31.435Z,3.63
2022-09-13T09:19:38.591Z,2.67
2022-09-13T09:24:47.024Z,2.60
2022-09-13T09:29:53.595Z,3.28
2022-09-13T09:35:10.016Z,2.80
2022-09-13T09:40:17.307Z,9.18
2022-09-13T09:45:28.207Z,2.70
2022-09-13T09:50:35.119Z,2.30
2022-09-13T09:55:44.559Z,2.22
2022-09-13T10:00:57.367Z,2.53
2022-09-13T10:06:08.534Z,2.72
2022-09-13T10:11:12.435Z,2.40
2022-09-13T10:16:27.334Z,2.50
2022-09-13T10:21:31.139Z,2.40
2022-09-13T10:26:36.567Z,2.28
2022-09-13T10:31:44.239Z,2.75
2022-09-13T10:36:54.593Z,1.90
2022-09-13T10:42:01.135Z,2.40
2022-09-13T10:47:08.029Z,2.53
2022-09-13T10:52:34.284Z,2.50
2022-09-13T10:57:38.811Z,2.28
2022-09-13T11:02:55.600Z,2.28
2022-09-13T11:08:22.154Z,2.13
2022-09-13T11:13:31.764Z,2.13
2022-09-13T11:18:48.501Z,2.75
2022-09-13T11:24:19.143Z,2.47
2022-09-13T11:29:47.148Z,5.78
2022-09-13T11:35:04.444Z,2.50
2022-09-13T11:40:25.664Z,1.80
2022-09-13T11:45:30.735Z,1.15
2022-09-13T11:50:41.391Z,1.52
2022-09-13T11:55:47.639Z,1.58
2022-09-13T12:00:55.895Z,1.75
2022-09-13T12:06:03.614Z,1.50
2022-09-13T12:11:15.870Z,1.83
2022-09-13T12:16:25.125Z,1.90
2022-09-13T12:21:32.316Z,1.90
2022-09-13T12:26:39.776Z,2.15
2022-09-13T12:31:43.619Z,2.00
2022-09-13T12:37:10.921Z,1.43
2022-09-13T12:42:42.888Z,1.50
2022-09-13T12:48:11.454Z,1.60
2022-09-13T12:53:32.632Z,2.00
2022-09-13T12:58:48.933Z,2.28
2022-09-13T13:03:54.987Z,1.98
2022-09-13T13:09:03.572Z,2.08
2022-09-13T13:14:10.487Z,2.15
2022-09-13T13:19:30.355Z,1.90
2022-09-13T13:24:49.451Z,2.35
2022-09-13T13:30:43.930Z,1.83
2022-09-13T13:35:47.968Z,2.08
2022-09-13T13:40:54.211Z,1.73
2022-09-13T13:46:00.399Z,2.00
2022-09-13T13:51:23.270Z,2.10
2022-09-13T13:56:34.654Z,2.40
2022-09-13T14:01:40.900Z,2.70
2022-09-13T14:06:50.183Z,2.33
2022-09-13T14:12:08.000Z,19.90
2022-09-13T14:17:38.069Z,5.82
2022-09-13T14:22:41.982Z,2.70
2022-09-13T14:27:48.652Z,2.58
2022-09-13T14:32:54.642Z,2.45
2022-09-13T14:38:11.810Z,2.60
2022-09-13T14:43:18.146Z,2.30
2022-09-13T14:48:24.757Z,1.88
2022-09-13T14:53:30.284Z,3.00
2022-09-13T14:58:40.973Z,2.20
2022-09-13T15:03:45.337Z,2.88
2022-09-13T15:08:49.894Z,3.87
2022-09-13T15:14:04.719Z,2.00
2022-09-13T15:19:32.700Z,2.87
2022-09-13T15:24:36.751Z,2.10
2022-09-13T15:29:41.915Z,2.10
2022-09-13T15:34:47.450Z,2.78
2022-09-13T15:44:58.852Z,2.30
2022-09-13T15:50:02.640Z,1.80
2022-09-13T15:55:08.301Z,4.13
2022-09-13T16:05:21.364Z,2.13
2022-09-13T16:10:25.547Z,2.20
2022-09-13T16:15:30.799Z,2.15
2022-09-13T16:20:34.625Z,2.22
2022-09-13T16:25:38.904Z,2.53
2022-09-13T16:30:44.071Z,2.10
2022-09-13T16:35:48.206Z,2.60
2022-09-13T16:40:52.129Z,3.05
2022-09-13T16:45:57.364Z,3.10
2022-09-13T16:51:03.538Z,3.33
2022-09-13T16:56:07.953Z,3.58
2022-09-13T17:01:14.451Z,3.58
2022-09-13T17:06:19.816Z,3.05
2022-09-13T17:11:25.736Z,2.97
2022-09-13T17:16:32.796Z,2.90
2022-09-13T17:21:37.149Z,3.10
2022-09-13T17:26:40.950Z,3.47
2022-09-13T17:31:46.404Z,3.38
2022-09-13T17:36:51.320Z,2.92
2022-09-13T17:41:55.335Z,4.03
2022-09-13T17:47:02.232Z,3.08
2022-09-13T17:52:06.034Z,2.95
2022-09-13T17:57:11.956Z,2.67
2022-09-13T18:07:22.077Z,2.85
2022-09-13T18:12:25.880Z,2.97
2022-09-13T18:17:31.063Z,2.58
2022-09-13T18:22:34.935Z,2.47
2022-09-13T18:27:38.837Z,2.80
2022-09-13T18:32:44.329Z,2.80
2022-09-13T18:37:48.117Z,2.35
2022-09-13T18:42:52.089Z,2.75
2022-09-13T18:47:57.263Z,2.10
2022-09-13T18:53:01.048Z,2.47
2022-09-13T18:58:05.491Z,2.20
2022-09-13T19:03:12.832Z,2.40
2022-09-13T19:08:16.931Z,2.55
2022-09-13T19:13:22.482Z,1.90
2022-09-13T19:18:27.681Z,1.95
2022-09-13T19:23:55.527Z,1.97
2022-09-13T19:28:57.515Z,1.60
2022-09-13T19:34:04.366Z,1.38
2022-09-13T19:39:09.185Z,2.40
2022-09-13T19:44:14.037Z,1.60
2022-09-13T19:49:19.314Z,1.23
2022-09-13T19:54:23.312Z,2.03
2022-09-13T19:59:27.671Z,1.55
2022-09-13T20:04:33.586Z,1.45
2022-09-13T20:14:40.920Z,1.23
2022-09-13T20:19:49.840Z,1.75
2022-09-13T20:24:54.235Z,1.60
2022-09-13T20:29:58.150Z,1.85
2022-09-13T20:35:04.070Z,1.70
2022-09-13T20:40:09.422Z,1.35
2022-09-13T20:45:13.246Z,1.48
2022-09-13T20:50:20.578Z,1.67
2022-09-13T20:55:24.404Z,1.33
2022-09-13T21:00:28.273Z,1.38
2022-09-13T21:05:33.487Z,1.20
2022-09-13T21:10:37.281Z,1.77
2022-09-13T21:15:42.184Z,1.70
2022-09-13T21:20:55.923Z,2.05
2022-09-13T21:26:04.103Z,1.88
2022-09-13T21:31:10.581Z,1.52
2022-09-13T21:36:15.834Z,1.80
2022-09-13T21:41:20.033Z,1.50
2022-09-13T21:46:25.504Z,1.15
2022-09-13T21:51:33.826Z,1.27
2022-09-13T21:56:39.934Z,1.27
2022-09-13T22:06:53.892Z,1.20
2022-09-13T22:11:57.906Z,1.60
2022-09-13T22:17:02.011Z,1.50
2022-09-13T22:22:07.285Z,1.30
2022-09-13T22:27:11.132Z,1.57
2022-09-13T22:32:14.937Z,1.60
2022-09-13T22:37:20.135Z,1.35
2022-09-13T22:42:24.803Z,1.73
2022-09-13T22:47:29.304Z,1.75
2022-09-13T22:52:34.733Z,1.58
2022-09-13T22:57:38.527Z,2.17
2022-09-13T23:02:46.937Z,1.73
2022-09-13T23:07:52.390Z,1.75
2022-09-13T23:12:57.855Z,1.70
2022-09-13T23:18:01.791Z,1.70
2022-09-13T23:23:07.044Z,1.90
2022-09-13T23:28:10.899Z,1.80
2022-09-13T23:33:14.774Z,1.30
2022-09-13T23:38:19.981Z,1.50
2022-09-13T23:43:24.840Z,1.83
2022-09-13T23:48:28.814Z,1.80
2022-09-13T23:53:34.299Z,1.70
2022-09-13T23:58:39.202Z,1.40
